Terminal Aerodrome Forecast
Issued by NWS

Home | Current Version | Previous Version | Text Only | Print | Product List | Glossary On
Versions: 1 2 3 4 5 6 7 8 9 10 11 12 13 14 15 16 17 18 19 20 21 22 23 24 25 26 27 28 29
000
FTUS45 KGJT 270539
TAFVEL
TAF
KVEL 270539Z 2706/2806 03003KT P6SM VCSH SCT060 OVC090
      TEMPO 2706/2707 6SM -SN SCT035 BKN060
     FM270700 01003KT P6SM BKN060
     FM271600 09003KT P6SM SCT060 OVC100
     FM280300 33004KT P6SM OVC050=

USA.gov is the U.S. government's official web portal to all federal, state and local government web resources and services.